x

Devils Island, Wi (disw3) Weather Station

12:00pm - Sun 23rd Nov 2014 All times are CST. -6 hours from GMT.

  • Wind
    5mph, 6mph gusts
  • Air Temp 42°f
  • Sea Pressure 996.9mb
  • Devils Island, Wi
  • Devils Island, Wi

More Historic Weather Station data

Upgrade to MSW Pro to gain access to the past 30 days of data for over 8000 Wavebouys and Weather Stations around the globe.

Join Pro

Comparision Forecast

View Surf forecast
   
Sun 11/23 12:00pm 5 6 mph 996.9mb 42f
11:00am 3 5 mph 997.3mb 42f
10:00am 5
mph
997.6mb 42f
9:00am 2 3 mph 997.3mb 43f
8:00am 3 5 mph 997.4mb 42f
7:00am 2 3 mph 997mb 41f
6:00am 7 13 mph 997.2mb 43f
5:00am 7 9 mph 997.5mb 39f
4:00am 15 17 mph 998.4mb 38f
3:00am 10 11 mph 999.6mb 38f
2:00am 13 15 mph 1000.7mb 38f
1:00am 10 13 mph 1002mb 37f
12:00am 8 10 mph 1003.4mb 37f
Sat 11/22 11:00pm 10 13 mph 1002.7mb 36f
10:00pm 10 14 mph 1004.1mb 35f
9:00pm 7 10 mph 1004.6mb 35f
8:00pm 8 10 mph 1004.8mb 36f
7:00pm 5 6 mph 1004.3mb 37f
6:00pm 3
mph
1005.1mb 37f
5:00pm 3
mph
1005.2mb 37f
4:00pm 3 5 mph 1005.3mb 38f
3:00pm 8 10 mph 1005mb 38f
2:00pm 11 14 mph 1005.1mb 38f
1:00pm 18 21 mph 1005.1mb 38f
12:00pm 18 21 mph 1005.5mb 37f
11:00am 20 21 mph 1005.8mb 37f
10:00am 20 24 mph 1006.4mb 36f
9:00am 21 25 mph 1006.8mb 36f
8:00am 23 28 mph 1006.3mb 35f
7:00am 25 29 mph 1006.4mb 36f
6:00am 25 29 mph 1006.2mb 35f
5:00am 26 32 mph 1006mb 35f
4:00am 26 31 mph 1006.4mb 35f
3:00am 24 31 mph 1006.8mb 35f
2:00am 29 36 mph 1007mb 34f
1:00am 28 34 mph 1007.7mb 33f
12:00am 30 34 mph 1007.8mb 33f
Fri 11/21 11:00pm 26 34 mph 1008mb 33f
10:00pm 24 29 mph 1008.6mb 33f
9:00pm 24 31 mph 1009.3mb 32f
8:00pm 25 32 mph 1010.3mb 32f
7:00pm 24 34 mph 1011.4mb 32f
6:00pm 22 29 mph 1012.1mb 33f
5:00pm 22 28 mph 1012.6mb 33f
4:00pm 14 20 mph 1012.9mb 33f
3:00pm 13 17 mph 1013.7mb 31f
2:00pm 11 17 mph 1015.2mb 28f
1:00pm 15 21 mph 1016.5mb 25f
12:00pm 10 16 mph 1018.5mb 23f
11:00am 14 18 mph 1020.4mb 19f
10:00am 11 16 mph 1021.8mb 17f
9:00am 15 21 mph 1022.9mb 16f
8:00am 11 18 mph 1023.2mb 16f
7:00am 15 20 mph 1023.7mb 16f
6:00am 11 17 mph 1023.9mb 16f
5:00am 16 21 mph 1024mb 16f
4:00am 17 24 mph 1024mb 16f
3:00am 8 14 mph 1024.2mb 17f
2:00am 10 14 mph 1024.5mb 16f
1:00am 14 17 mph 1023.9mb 16f
12:00am 9 14 mph 1023.9mb 16f
Thu 11/20 11:00pm 15 17 mph 1023.3mb 15f
10:00pm 16 22 mph 1023.2mb 15f
9:00pm 20 24 mph 1022.5mb 16f
8:00pm 24 29 mph 1022mb 16f
7:00pm 18 23 mph 1021.7mb 17f
6:00pm 21 25 mph 1021.4mb 16f
5:00pm 21 25 mph 1020.6mb 16f
4:00pm 20 23 mph 1019.5mb 16f
3:00pm 23 28 mph 1018.6mb 15f
2:00pm 20 25 mph 1018.3mb 13f
1:00pm 21 29 mph 1017.7mb 13f
12:00pm 25 30 mph 1017.2mb 11f
11:00am 23 32 mph 1017mb 10f
10:00am 23 29 mph 1015.9mb 11f
9:00am 24 30 mph 1015.1mb 12f
8:00am 26 34 mph 1014.1mb 13f
7:00am 26 31 mph 1013.5mb 13f
6:00am 26 31 mph 1012.6mb 14f
5:00am 25 31 mph 1012.2mb 14f
4:00am 26 33 mph 1011.8mb 15f
3:00am 29 33 mph 1011.4mb 15f
2:00am 24 32 mph 1011mb 16f
1:00am 23 28 mph 1010.3mb 17f
12:00am 24 31 mph 1010.2mb 17f
Wed 11/19 11:00pm 26 32 mph 1009.6mb 18f
10:00pm 28 33 mph 1009.4mb 19f
9:00pm 26 32 mph 1009mb 19f
8:00pm 26 32 mph 1008.8mb 21f